Time;durP1;ratioP1;P1;durP2;ratioP2;P2;SDS_P1;SDS_P2;PMS_P1;PMS_P2;Temp;Humidity;BMP_temperature;BMP_pressure;BME280_temperature;BME280_humidity;BME280_pressure;Samples;Min_cycle;Max_cycle;Signal;HPM_P1;HPM_P2
2021/08/14 00:00:06;;;;;;;;;6.50;4.00;;;;;21.22;53.01;101976.19;5065998;27;45741;-75
2021/08/14 00:02:31;;;;;;;;;3.50;3.00;;;;;21.18;53.02;101980.25;5050117;28;45517;-72
2021/08/14 00:04:57;;;;;;;;;5.00;3.75;;;;;21.13;52.86;101987.22;5068694;28;45530;-70
2021/08/14 00:07:22;;;;;;;;;3.50;3.50;;;;;21.10;52.99;101983.06;5065772;27;45589;-71
2021/08/14 00:09:48;;;;;;;;;3.75;3.25;;;;;21.06;53.23;101987.13;5056144;28;45657;-70
2021/08/14 00:12:13;;;;;;;;;3.00;3.00;;;;;21.02;53.35;101981.31;5042116;28;45584;-78
2021/08/14 00:14:38;;;;;;;;;5.75;3.50;;;;;20.99;53.42;101981.72;5051506;28;45465;-71
2021/08/14 00:17:04;;;;;;;;;4.25;3.75;;;;;20.97;53.66;101981.06;5049912;28;46098;-73
2021/08/14 00:19:30;;;;;;;;;4.50;4.50;;;;;20.97;53.41;101982.91;5048966;28;45472;-76
2021/08/14 00:21:56;;;;;;;;;7.00;4.00;;;;;20.94;53.81;101978.72;5049835;28;45482;-75
2021/08/14 00:24:22;;;;;;;;;3.00;3.00;;;;;20.93;53.77;101989.69;5052216;28;45667;-77
2021/08/14 00:26:47;;;;;;;;;5.00;4.00;;;;;20.89;53.57;101985.69;5050338;28;45506;-75
2021/08/14 00:29:13;;;;;;;;;5.75;4.75;;;;;20.87;53.90;101982.34;5052940;28;45505;-73
2021/08/14 00:31:38;;;;;;;;;7.75;5.00;;;;;20.84;53.98;101975.50;5048203;28;45826;-76
2021/08/14 00:34:03;;;;;;;;;2.25;2.25;;;;;20.81;53.60;101971.34;5049968;28;45584;-72
2021/08/14 00:36:29;;;;;;;;;2.75;2.75;;;;;20.78;53.35;101968.19;5051367;28;46278;-75
2021/08/14 00:38:54;;;;;;;;;5.25;3.50;;;;;20.74;54.04;101964.22;5052584;28;45635;-74
2021/08/14 00:41:20;;;;;;;;;4.50;3.50;;;;;20.72;53.80;101968.94;5049058;28;45478;-74
2021/08/14 00:43:46;;;;;;;;;5.00;3.00;;;;;20.69;53.52;101961.25;5052037;28;45547;-73
2021/08/14 00:46:13;;;;;;;;;4.00;3.75;;;;;20.68;53.73;101965.81;5050453;28;46545;-72
2021/08/14 00:48:39;;;;;;;;;4.25;4.25;;;;;20.65;53.88;101963.50;5049699;28;45442;-70
2021/08/14 00:51:07;;;;;;;;;3.00;1.00;;;;;20.63;53.65;101975.44;5050803;28;45509;-74
2021/08/14 00:53:32;;;;;;;;;4.25;2.00;;;;;20.59;53.75;101969.59;5049645;28;45489;-72
2021/08/14 00:55:59;;;;;;;;;3.25;3.25;;;;;20.56;53.90;101975.34;5049463;28;46306;-74
2021/08/14 00:58:25;;;;;;;;;5.00;3.00;;;;;20.51;53.87;101975.88;5050020;28;45615;-70
2021/08/14 01:00:50;;;;;;;;;4.75;3.75;;;;;20.49;53.86;101974.38;5030819;28;45676;-75
2021/08/14 01:03:16;;;;;;;;;3.25;3.00;;;;;20.46;54.21;101980.13;5048901;28;45642;-75
2021/08/14 01:05:48;;;;;;;;;5.75;4.00;;;;;20.43;54.03;101975.13;5035185;28;46948;-75
2021/08/14 01:08:14;;;;;;;;;4.50;2.75;;;;;20.39;54.06;101974.66;5032067;28;45495;-74
2021/08/14 01:10:40;;;;;;;;;5.50;4.00;;;;;20.35;54.00;101974.19;5050445;28;45570;-73
2021/08/14 01:13:05;;;;;;;;;5.25;3.50;;;;;20.32;54.04;101976.41;5055213;28;45537;-75
2021/08/14 01:15:30;;;;;;;;;5.25;4.00;;;;;20.30;53.71;101973.06;5048631;28;46085;-75
2021/08/14 01:17:57;;;;;;;;;8.25;6.50;;;;;20.27;54.04;101971.59;5050542;28;45405;-71
2021/08/14 01:20:23;;;;;;;;;7.00;5.00;;;;;20.25;54.22;101968.28;5052381;28;45459;-71
2021/08/14 01:22:49;;;;;;;;;6.25;4.00;;;;;20.23;54.01;101970.31;5059552;28;45644;-75
2021/08/14 01:25:16;;;;;;;;;6.50;4.00;;;;;20.21;54.24;101972.34;5052251;28;45485;-72
2021/08/14 01:27:41;;;;;;;;;4.25;4.25;;;;;20.19;53.98;101966.31;5056547;28;45529;-73
2021/08/14 01:30:08;;;;;;;;;4.25;4.00;;;;;20.17;54.39;101971.03;5054330;28;45615;-71
2021/08/14 01:32:34;;;;;;;;;5.00;4.25;;;;;20.17;54.50;101965.66;5057072;28;45582;-75
2021/08/14 01:35:00;;;;;;;;;9.00;6.00;;;;;20.14;54.58;101956.13;5054131;28;46308;-72
2021/08/14 01:37:30;;;;;;;;;7.50;5.00;;;;;20.12;54.18;101960.81;5051440;28;45500;-70
2021/08/14 01:39:55;;;;;;;;;6.50;5.00;;;;;20.10;54.77;101956.66;5045626;28;45687;-70
2021/08/14 01:42:21;;;;;;;;;9.00;7.00;;;;;20.10;54.66;101953.97;5049312;28;45561;-71
2021/08/14 01:44:46;;;;;;;;;7.00;6.00;;;;;20.10;54.67;101953.97;5036478;28;48265;-72
2021/08/14 01:47:12;;;;;;;;;9.75;8.75;;;;;20.08;54.27;101951.50;5035595;28;45597;-72
2021/08/14 01:49:37;;;;;;;;;11.50;6.75;;;;;20.09;54.33;101955.84;5053879;28;45437;-76
2021/08/14 01:52:14;;;;;;;;;11.00;7.75;;;;;20.07;54.38;101951.66;5051794;28;45562;-76
2021/08/14 01:54:41;;;;;;;;;7.25;5.25;;;;;20.04;54.35;101954.72;5062021;28;45871;-71
2021/08/14 01:57:07;;;;;;;;;8.50;5.75;;;;;20.03;54.20;101947.66;5049703;28;45546;-71
2021/08/14 01:59:33;;;;;;;;;5.25;4.00;;;;;20.02;54.09;101954.06;5051299;28;45547;-70
2021/08/14 02:01:59;;;;;;;;;6.00;4.25;;;;;20.01;54.45;101952.41;5045811;28;45505;-72
2021/08/14 02:04:24;;;;;;;;;10.00;5.00;;;;;19.98;54.21;101957.13;5054009;28;45685;-72
2021/08/14 02:06:50;;;;;;;;;8.50;6.00;;;;;19.96;54.40;101956.47;5056522;28;45459;-70
2021/08/14 02:09:15;;;;;;;;;5.00;4.50;;;;;19.90;53.83;101949.13;5065087;28;45667;-72
2021/08/14 02:11:41;;;;;;;;;6.00;4.25;;;;;19.88;54.62;101948.50;5075864;27;45404;-70
2021/08/14 02:14:06;;;;;;;;;5.00;5.00;;;;;19.86;55.32;101953.22;5069014;27;46461;-72
2021/08/14 02:16:33;;;;;;;;;4.75;4.50;;;;;19.84;54.40;101947.19;5071614;27;45578;-71
2021/08/14 02:18:59;;;;;;;;;7.25;3.75;;;;;19.82;54.53;101945.69;5059465;28;45693;-73
2021/08/14 02:21:25;;;;;;;;;5.00;3.75;;;;;19.77;54.91;101939.00;5069245;27;45634;-72
2021/08/14 02:23:52;;;;;;;;;5.50;3.75;;;;;19.77;54.54;101938.19;5071357;27;46291;-76
2021/08/14 02:26:18;;;;;;;;;7.00;4.00;;;;;19.74;54.49;101927.81;5080723;27;45479;-73
2021/08/14 02:28:43;;;;;;;;;4.25;3.00;;;;;19.70;54.76;101939.91;5055153;28;45550;-74
2021/08/14 02:31:09;;;;;;;;;6.50;4.00;;;;;19.68;54.60;101934.75;5069434;27;45414;-70
2021/08/14 02:33:35;;;;;;;;;5.50;4.00;;;;;19.65;54.72;101931.56;5074228;27;45525;-75
2021/08/14 02:36:02;;;;;;;;;4.50;4.50;;;;;19.64;54.71;101932.59;5071449;27;45416;-74
2021/08/14 02:38:28;;;;;;;;;10.75;3.00;;;;;19.57;54.52;101935.13;5070917;27;45617;-70
2021/08/14 02:40:53;;;;;;;;;7.00;3.00;;;;;19.54;54.99;101930.97;5066437;27;45526;-71
2021/08/14 02:43:18;;;;;;;;;4.75;3.50;;;;;19.51;54.73;101925.97;5066014;27;47017;-73
2021/08/14 02:45:45;;;;;;;;;4.75;3.00;;;;;19.50;54.75;101926.97;5074239;27;45490;-70
2021/08/14 02:48:11;;;;;;;;;4.00;3.50;;;;;19.48;54.52;101920.94;5076104;27;45661;-71
2021/08/14 02:50:38;;;;;;;;;6.00;4.00;;;;;19.48;54.76;101922.81;5080745;27;45517;-74
2021/08/14 02:53:03;;;;;;;;;4.50;3.75;;;;;19.46;54.94;101920.31;5059621;27;46567;-72
2021/08/14 02:55:29;;;;;;;;;5.50;3.50;;;;;19.43;54.64;101917.16;5074450;27;45444;-73
2021/08/14 02:57:54;;;;;;;;;6.50;2.75;;;;;19.40;54.90;101917.50;5077503;27;45525;-75
2021/08/14 03:00:20;;;;;;;;;6.75;4.00;;;;;19.35;54.97;101912.69;5070989;28;45634;-73
2021/08/14 03:02:45;;;;;;;;;7.75;4.00;;;;;19.33;55.27;101903.97;5069612;27;45504;-74
2021/08/14 03:05:11;;;;;;;;;2.50;2.50;;;;;19.31;55.24;101911.38;5049291;28;45582;-74
2021/08/14 03:07:37;;;;;;;;;3.50;2.75;;;;;19.28;55.14;101911.72;5065484;27;45622;-75
2021/08/14 03:10:03;;;;;;;;;3.00;3.00;;;;;19.28;55.21;101906.38;5067929;27;45471;-75
2021/08/14 03:12:28;;;;;;;;;10.25;4.50;;;;;19.26;55.23;101905.69;5067856;27;46477;-71
2021/08/14 03:14:54;;;;;;;;;4.00;3.00;;;;;19.24;55.12;101907.75;5069738;27;45530;-75
2021/08/14 03:17:19;;;;;;;;;4.00;3.00;;;;;19.22;55.41;101899.06;5068756;27;45745;-70
2021/08/14 03:19:45;;;;;;;;;6.50;2.75;;;;;19.22;55.63;101899.06;5067624;27;45520;-71
2021/08/14 03:22:10;;;;;;;;;3.75;3.00;;;;;19.21;55.66;101900.03;5073364;27;45833;-71
2021/08/14 03:24:37;;;;;;;;;8.00;3.00;;;;;19.20;55.56;101895.72;5068426;27;45553;-73
2021/08/14 03:27:03;;;;;;;;;5.25;3.25;;;;;19.18;55.69;101906.59;5069769;27;45426;-76
2021/08/14 03:29:29;;;;;;;;;5.00;4.50;;;;;19.17;55.83;101898.75;5075929;27;45674;-73
2021/08/14 03:31:54;;;;;;;;;6.25;4.75;;;;;19.16;55.84;101892.53;5067341;27;46287;-75
2021/08/14 03:34:20;;;;;;;;;6.75;4.00;;;;;19.13;56.01;101887.53;5071047;27;45402;-72
2021/08/14 03:36:45;;;;;;;;;8.75;2.75;;;;;19.14;55.69;101897.28;5080370;27;45570;-75
2021/08/14 03:39:10;;;;;;;;;5.25;4.00;;;;;19.11;55.87;101895.78;5068390;27;45983;-75
2021/08/14 03:41:36;;;;;;;;;4.00;4.00;;;;;19.11;56.03;101895.78;5068968;27;46340;-73
2021/08/14 03:44:02;;;;;;;;;4.00;2.25;;;;;19.08;56.30;101889.94;5045943;28;45541;-73
2021/08/14 03:46:28;;;;;;;;;3.75;2.50;;;;;19.07;56.46;101888.28;5072264;27;45600;-71
2021/08/14 03:48:53;;;;;;;;;5.25;4.25;;;;;19.05;56.28;101883.06;5071498;27;45945;-74
2021/08/14 03:51:19;;;;;;;;;7.00;3.75;;;;;19.02;56.85;101887.97;5066246;27;45764;-74
2021/08/14 03:53:44;;;;;;;;;4.25;3.50;;;;;18.96;56.82;101886.81;5054680;28;45469;-76
2021/08/14 03:56:09;;;;;;;;;6.50;3.50;;;;;18.95;57.32;101892.38;5069775;27;46026;-74
2021/08/14 03:58:35;;;;;;;;;3.75;3.75;;;;;18.94;56.85;101893.34;5071864;27;45523;-71
2021/08/14 04:01:02;;;;;;;;;6.50;3.75;;;;;18.92;56.90;101896.22;5070813;27;47035;-71
2021/08/14 04:03:27;;;;;;;;;6.25;4.75;;;;;18.91;57.11;101890.00;5068151;27;45593;-75
2021/08/14 04:05:53;;;;;;;;;5.25;3.50;;;;;18.90;57.33;101892.88;5072666;27;45524;-72
2021/08/14 04:08:18;;;;;;;;;3.75;3.00;;;;;18.89;57.20;101891.19;5078560;27;45532;-72
2021/08/14 04:10:44;;;;;;;;;10.00;4.25;;;;;18.88;57.22;101881.50;5074279;27;46646;-73
2021/08/14 04:13:09;;;;;;;;;5.75;3.50;;;;;18.83;57.36;101881.22;5052460;28;45464;-74
2021/08/14 04:15:35;;;;;;;;;4.00;3.25;;;;;18.81;57.41;101877.88;5080512;27;45601;-74
2021/08/14 04:18:00;;;;;;;;;4.75;3.75;;;;;18.79;57.67;101875.38;5066832;27;45514;-71
2021/08/14 04:20:25;;;;;;;;;5.75;3.50;;;;;18.79;57.65;101877.19;5061699;27;46291;-73
2021/08/14 04:22:51;;;;;;;;;5.50;3.75;;;;;18.79;57.28;101879.88;5065118;27;45506;-70
2021/08/14 04:25:16;;;;;;;;;5.75;3.75;;;;;18.76;57.76;101874.88;5069890;27;45480;-75
2021/08/14 04:27:42;;;;;;;;;6.00;3.50;;;;;18.75;57.60;101878.56;5068725;27;45491;-75
2021/08/14 04:30:07;;;;;;;;;4.50;3.75;;;;;18.74;57.89;101866.16;5073504;27;45446;-71
2021/08/14 04:32:35;;;;;;;;;5.50;3.50;;;;;18.74;57.85;101868.84;5079749;27;45497;-72
2021/08/14 04:35:03;;;;;;;;;8.75;3.00;;;;;18.73;57.90;101868.00;5068067;27;45554;-74
2021/08/14 04:37:28;;;;;;;;;4.75;4.00;;;;;18.70;58.86;101866.50;5070609;28;45490;-72
2021/08/14 04:39:53;;;;;;;;;7.50;3.50;;;;;18.69;59.07;101870.22;5071433;27;45744;-71
2021/08/14 04:42:19;;;;;;;;;5.75;3.75;;;;;18.67;58.38;101869.56;5068714;27;45544;-76
2021/08/14 04:44:44;;;;;;;;;7.75;5.00;;;;;18.64;58.45;101861.00;5069252;27;45499;-72
2021/08/14 04:47:10;;;;;;;;;7.75;3.75;;;;;18.61;58.50;101862.19;5053851;27;45525;-73
2021/08/14 04:49:35;;;;;;;;;4.00;4.00;;;;;18.61;59.02;101861.38;5067391;27;46592;-76
2021/08/14 04:52:00;;;;;;;;;4.50;3.75;;;;;18.62;58.75;101858.53;5078016;27;45555;-73
2021/08/14 04:54:26;;;;;;;;;3.25;2.75;;;;;18.63;58.89;101854.84;5068310;27;45594;-74
2021/08/14 04:56:51;;;;;;;;;8.00;5.25;;;;;18.64;58.78;101851.16;5074547;27;45623;-75
2021/08/14 04:59:16;;;;;;;;;6.50;5.00;;;;;18.66;58.61;101859.81;5067699;27;47118;-74
2021/08/14 05:01:42;;;;;;;;;4.00;3.00;;;;;18.70;58.87;101855.81;5067342;27;45440;-70
2021/08/14 05:04:07;;;;;;;;;4.50;3.00;;;;;18.74;58.49;101855.44;5051952;28;45362;-71
2021/08/14 05:06:32;;;;;;;;;3.50;3.50;;;;;18.78;58.58;101856.81;5078987;27;45286;-71
2021/08/14 05:08:58;;;;;;;;;4.25;4.00;;;;;18.80;59.22;101863.66;5054510;28;46924;-74
2021/08/14 05:11:23;;;;;;;;;8.50;3.75;;;;;18.82;58.76;101863.47;5044480;28;45836;-73
2021/08/14 05:13:48;;;;;;;;;5.50;4.25;;;;;18.85;58.35;101863.13;5067395;27;45503;-71
2021/08/14 05:16:14;;;;;;;;;5.50;3.75;;;;;18.84;58.19;101859.63;5048955;28;45522;-74
2021/08/14 05:18:39;;;;;;;;;4.25;3.75;;;;;18.83;58.50;101860.59;5068794;27;46967;-74
2021/08/14 05:21:04;;;;;;;;;4.75;4.25;;;;;18.87;58.14;101855.75;5066379;28;45630;-72
2021/08/14 05:23:30;;;;;;;;;5.75;3.50;;;;;18.92;58.10;101864.09;5076162;27;45461;-74
2021/08/14 05:25:55;;;;;;;;;6.50;3.50;;;;;18.97;57.71;101863.56;5066557;27;45404;-75
2021/08/14 05:28:22;;;;;;;;;6.00;4.00;;;;;19.01;57.70;101856.81;5066514;27;46180;-72
2021/08/14 05:30:47;;;;;;;;;4.75;4.75;;;;;19.05;57.61;101858.97;5062713;27;45499;-75
2021/08/14 05:33:13;;;;;;;;;5.00;3.75;;;;;19.12;57.43;101859.91;5068862;27;46174;-73
2021/08/14 05:35:38;;;;;;;;;5.00;3.50;;;;;19.19;57.28;101869.91;5066876;27;45521;-74
2021/08/14 05:38:04;;;;;;;;;5.75;4.50;;;;;19.20;57.33;101867.06;5075541;27;46755;-72
2021/08/14 05:40:29;;;;;;;;;4.75;3.00;;;;;19.24;57.25;101865.69;5076787;27;45492;-74
2021/08/14 05:42:54;;;;;;;;;6.00;4.75;;;;;19.29;57.47;101857.13;5068329;27;45538;-71
2021/08/14 05:45:20;;;;;;;;;5.00;3.75;;;;;19.31;57.63;101861.28;5068269;27;45606;-73
2021/08/14 05:47:45;;;;;;;;;4.50;4.00;;;;;19.34;57.33;101858.25;5068822;27;45550;-73
2021/08/14 05:50:10;;;;;;;;;4.25;3.00;;;;;19.39;57.08;101867.59;5063134;27;45511;-72
2021/08/14 05:52:36;;;;;;;;;4.50;4.25;;;;;19.46;56.89;101872.06;5078074;27;45445;-71
2021/08/14 05:55:01;;;;;;;;;4.00;4.00;;;;;19.53;57.06;101874.84;5062523;27;45958;-71
2021/08/14 05:57:27;;;;;;;;;3.25;3.00;;;;;19.59;57.06;101875.97;5069462;27;45409;-71
2021/08/14 05:59:52;;;;;;;;;5.00;3.00;;;;;19.63;56.72;101882.63;5071480;27;45900;-74
2021/08/14 06:02:18;;;;;;;;;5.25;3.50;;;;;19.70;56.70;101880.91;5080838;27;45557;-74
2021/08/14 06:04:43;;;;;;;;;5.75;4.00;;;;;19.77;56.35;101880.00;5076584;27;45867;-72
2021/08/14 06:07:08;;;;;;;;;5.75;4.00;;;;;19.83;56.14;101885.66;5081098;27;46473;-76
2021/08/14 06:09:34;;;;;;;;;5.25;2.75;;;;;19.87;56.06;101881.59;5082552;27;45677;-74
2021/08/14 06:11:59;;;;;;;;;8.25;4.00;;;;;19.93;55.73;101889.75;5073040;27;45579;-68
2021/08/14 06:14:25;;;;;;;;;5.75;4.00;;;;;19.95;55.88;101885.06;5060862;27;45548;-74
2021/08/14 06:16:50;;;;;;;;;4.00;3.75;;;;;20.01;56.18;101893.38;5074149;27;46106;-72
2021/08/14 06:19:16;;;;;;;;;3.75;3.75;;;;;20.08;55.97;101897.81;5079700;27;45656;-72
2021/08/14 06:21:41;;;;;;;;;4.00;4.00;;;;;20.17;55.54;101895.88;5088223;27;45460;-73
2021/08/14 06:24:07;;;;;;;;;3.25;3.25;;;;;20.26;55.09;101894.78;5063355;27;45521;-73
2021/08/14 06:26:32;;;;;;;;;4.25;4.00;;;;;20.30;55.40;101892.53;5066166;27;46304;-70
2021/08/14 06:28:58;;;;;;;;;5.50;3.00;;;;;20.41;55.18;101897.44;5068912;27;45577;-70
2021/08/14 06:31:24;;;;;;;;;6.25;4.00;;;;;20.47;55.00;101894.00;5071613;27;45516;-73
2021/08/14 06:33:49;;;;;;;;;4.00;4.00;;;;;20.53;54.54;101905.88;5063942;27;45493;-73
2021/08/14 06:36:14;;;;;;;;;4.00;3.00;;;;;20.58;54.60;101892.75;5081548;27;45637;-70
2021/08/14 06:38:40;;;;;;;;;5.25;3.25;;;;;20.64;54.47;101891.97;5058973;27;45548;-75
2021/08/14 06:41:05;;;;;;;;;7.50;4.00;;;;;20.71;54.38;101895.59;5071357;27;45446;-73
2021/08/14 06:43:31;;;;;;;;;6.00;5.00;;;;;20.78;53.86;101891.13;5066686;27;45555;-70
2021/08/14 06:45:56;;;;;;;;;5.00;4.00;;;;;20.87;54.35;101901.75;5072731;27;46274;-69
2021/08/14 06:48:22;;;;;;;;;4.50;4.00;;;;;20.94;53.50;101897.28;5070759;27;45474;-72
2021/08/14 06:50:47;;;;;;;;;5.00;3.75;;;;;21.02;54.19;101884.56;5062610;27;45442;-74
2021/08/14 06:53:13;;;;;;;;;7.75;4.25;;;;;21.13;53.98;101895.84;5066384;27;45888;-72
2021/08/14 06:55:38;;;;;;;;;6.25;4.00;;;;;21.19;52.91;101887.84;5081831;27;46257;-70
2021/08/14 06:58:04;;;;;;;;;5.25;3.00;;;;;21.26;52.68;101888.75;5074649;27;45540;-69
2021/08/14 07:00:29;;;;;;;;;6.50;3.00;;;;;21.28;52.24;101888.53;5070778;27;45442;-78
2021/08/14 07:02:55;;;;;;;;;7.00;5.00;;;;;21.30;52.81;101896.44;5068378;27;45456;-72
2021/08/14 07:05:20;;;;;;;;;6.75;4.00;;;;;21.41;53.14;101895.94;5059219;27;46338;-70
2021/08/14 07:07:46;;;;;;;;;4.25;4.25;;;;;21.53;53.03;101890.88;5068482;27;45523;-73
2021/08/14 07:10:12;;;;;;;;;7.00;5.00;;;;;21.65;52.80;101894.69;5064131;27;46802;-72
2021/08/14 07:12:37;;;;;;;;;7.75;4.00;;;;;21.75;52.30;101889.78;5068264;27;45716;-74
2021/08/14 07:15:03;;;;;;;;;4.25;4.25;;;;;21.84;52.30;101888.63;5069529;27;45525;-69
2021/08/14 07:17:28;;;;;;;;;6.50;4.00;;;;;21.94;51.30;101882.91;5067772;27;45831;-72
2021/08/14 07:19:54;;;;;;;;;3.00;3.00;;;;;22.02;50.76;101880.03;5070241;27;45792;-69
2021/08/14 07:22:19;;;;;;;;;5.00;3.00;;;;;22.14;51.26;101887.59;5071894;27;45486;-71
2021/08/14 07:24:44;;;;;;;;;4.00;4.00;;;;;22.27;51.08;101882.28;5066222;27;46354;-75
2021/08/14 07:27:10;;;;;;;;;1.50;1.50;;;;;22.54;50.15;101884.06;5060296;28;45912;-76
2021/08/14 07:29:35;;;;;;;;;5.50;3.75;;;;;22.85;50.09;101885.44;5067262;27;45657;-76
2021/08/14 07:32:01;;;;;;;;;3.75;2.75;;;;;23.05;48.71;101884.69;5073952;27;45584;-71
2021/08/14 07:34:26;;;;;;;;;4.75;3.00;;;;;23.15;47.94;101890.53;5079473;27;45435;-71
2021/08/14 07:36:51;;;;;;;;;7.50;4.75;;;;;23.58;48.39;101879.31;5069243;27;45476;-73
2021/08/14 07:39:17;;;;;;;;;5.75;4.25;;;;;23.86;47.28;101875.59;5074789;27;45704;-69
2021/08/14 07:41:43;;;;;;;;;5.25;5.00;;;;;24.23;46.32;101882.16;5091283;27;45650;-74
2021/08/14 07:44:09;;;;;;;;;7.00;4.50;;;;;25.90;43.02;101873.88;5050836;28;47591;-73
2021/08/14 07:46:35;;;;;;;;;4.75;4.00;;;;;28.56;43.13;101866.19;5069243;27;45444;-72
2021/08/14 07:49:00;;;;;;;;;5.50;4.50;;;;;31.91;38.19;101861.69;5071529;27;45412;-74
2021/08/14 07:51:26;;;;;;;;;5.50;4.00;;;;;34.32;35.10;101863.69;5068194;27;45861;-72
2021/08/14 07:53:52;;;;;;;;;4.75;3.00;;;;;35.86;32.24;101866.84;5081143;27;46716;-70
2021/08/14 07:56:17;;;;;;;;;9.00;6.50;;;;;36.84;30.41;101869.09;5081506;27;45716;-78
2021/08/14 07:58:42;;;;;;;;;9.75;5.75;;;;;37.91;28.77;101876.56;5071215;27;45483;-74
2021/08/14 08:01:08;;;;;;;;;7.75;7.75;;;;;38.79;28.02;101868.84;5075453;27;45584;-74
2021/08/14 08:03:33;;;;;;;;;10.25;9.25;;;;;39.34;26.59;101871.34;5063015;27;46181;-74
2021/08/14 08:05:58;;;;;;;;;9.00;7.50;;;;;40.16;25.53;101870.94;5062065;27;45465;-73
2021/08/14 08:08:24;;;;;;;;;8.75;6.25;;;;;41.81;24.51;101872.66;5071302;27;45904;-72
2021/08/14 08:10:49;;;;;;;;;10.25;7.00;;;;;43.43;22.30;101874.72;5070123;27;45519;-73
2021/08/14 08:13:14;;;;;;;;;5.00;3.00;;;;;44.65;20.89;101879.25;5077384;27;46420;-74
2021/08/14 08:15:40;;;;;;;;;7.75;3.75;;;;;45.57;20.42;101867.34;5072302;27;45444;-74
2021/08/14 08:18:05;;;;;;;;;3.00;3.00;;;;;46.43;18.63;101884.03;5072254;27;45422;-71
2021/08/14 08:20:30;;;;;;;;;5.25;2.25;;;;;47.10;14.19;101875.34;5078748;27;45889;-72
2021/08/14 08:22:56;;;;;;;;;2.00;2.00;;;;;47.29;17.62;101876.47;5067864;27;45765;-74
2021/08/14 08:25:22;;;;;;;;;1.25;1.25;;;;;47.88;17.36;101874.19;5067554;27;45999;-74
2021/08/14 08:27:49;;;;;;;;;3.00;2.00;;;;;48.42;16.56;101867.28;5067447;27;45618;-74
2021/08/14 08:30:17;;;;;;;;;3.00;2.00;;;;;48.63;15.96;101869.56;5063911;27;45610;-72
2021/08/14 08:32:43;;;;;;;;;2.50;1.50;;;;;48.66;15.45;101869.56;5071085;27;45622;-74
2021/08/14 08:35:09;;;;;;;;;4.25;3.00;;;;;48.97;15.73;101867.50;5066475;27;45583;-74
2021/08/14 08:37:35;;;;;;;;;3.00;2.25;;;;;49.45;14.98;101863.88;5052087;27;45495;-71
2021/08/14 08:40:00;;;;;;;;;3.50;2.50;;;;;49.54;14.35;101861.53;5075663;27;45408;-71
2021/08/14 08:42:26;;;;;;;;;2.25;2.25;;;;;49.46;14.25;101862.66;5070780;27;45501;-75
2021/08/14 08:44:51;;;;;;;;;4.00;3.00;;;;;49.57;14.30;101859.94;5071651;27;45464;-75
2021/08/14 08:47:17;;;;;;;;;1.75;1.00;;;;;49.71;13.86;101866.47;5068508;27;45602;-72
2021/08/14 08:49:58;;;;;;;;;1.50;1.50;;;;;49.54;14.41;101867.16;5066390;27;45416;-71
2021/08/14 08:52:24;;;;;;;;;4.00;3.75;;;;;49.07;14.07;101860.38;5046932;28;48180;-70
2021/08/14 08:54:51;;;;;;;;;3.50;1.50;;;;;48.50;14.35;101856.97;5076101;27;45403;-73
2021/08/14 08:57:17;;;;;;;;;3.75;2.75;;;;;47.70;14.93;101854.31;5069254;27;45715;-74
2021/08/14 08:59:46;;;;;;;;;5.50;4.75;;;;;46.65;15.05;101856.53;5082595;27;45411;-71
2021/08/14 09:02:34;;;;;;;;;3.50;3.00;;;;;45.37;16.41;101846.91;5068589;27;46542;-75
2021/08/14 09:05:20;;;;;;;;;3.75;3.50;;;;;44.35;17.39;101848.16;5071567;27;45483;-71
2021/08/14 09:07:47;;;;;;;;;5.00;4.00;;;;;43.64;17.50;101844.00;5065213;27;45539;-74
2021/08/14 09:10:16;;;;;;;;;3.75;3.25;;;;;43.08;17.79;101836.19;5028550;27;1152754;-73
2021/08/14 09:12:43;;;;;;;;;4.50;4.25;;;;;42.71;19.38;101832.47;5069017;27;46362;-74
2021/08/14 09:15:16;;;;;;;;;4.75;4.25;;;;;42.34;15.93;101829.53;5068136;27;45567;-76
2021/08/14 09:17:44;;;;;;;;;3.00;3.00;;;;;41.37;15.57;101834.03;5076032;27;45520;-73
2021/08/14 09:20:11;;;;;;;;;5.00;5.00;;;;;40.60;18.21;101830.28;5068799;27;45691;-75
2021/08/14 09:22:37;;;;;;;;;4.50;4.50;;;;;39.86;18.72;101833.97;5074135;27;46615;-77
2021/08/14 09:25:11;;;;;;;;;5.75;3.75;;;;;39.27;19.56;101834.19;5072721;27;45587;-75
2021/08/14 09:27:51;;;;;;;;;4.25;3.50;;;;;38.86;18.30;101824.22;5067974;27;45547;-71
2021/08/14 09:30:17;;;;;;;;;5.25;4.00;;;;;38.17;18.16;101819.75;5069624;27;45890;-75
2021/08/14 09:32:42;;;;;;;;;4.50;4.00;;;;;37.45;21.06;101823.16;5071293;27;45508;-71
2021/08/14 09:35:08;;;;;;;;;7.00;4.00;;;;;37.25;20.56;101827.13;5062719;27;45592;-71
2021/08/14 09:37:38;;;;;;;;;4.75;4.00;;;;;37.15;21.35;101821.78;5050624;28;45491;-76
2021/08/14 09:40:05;;;;;;;;;4.00;4.00;;;;;37.07;22.09;101827.97;5082941;27;45333;-69
2021/08/14 09:42:31;;;;;;;;;3.00;3.00;;;;;36.65;21.94;101824.25;5084271;27;45499;-74
2021/08/14 09:45:10;;;;;;;;;3.25;1.00;;;;;36.54;21.80;101820.81;5056638;28;45539;-73
2021/08/14 09:47:36;;;;;;;;;4.00;4.00;;;;;36.63;21.49;101812.75;5070951;27;45497;-71
2021/08/14 09:50:01;;;;;;;;;6.75;3.75;;;;;36.75;22.11;101813.91;5066501;27;45451;-71
2021/08/14 09:52:27;;;;;;;;;6.25;4.00;;;;;36.96;22.92;101814.38;5063857;27;47082;-72
2021/08/14 09:54:56;;;;;;;;;6.25;4.25;;;;;37.07;21.89;101814.22;5072867;27;45427;-70
2021/08/14 09:57:23;;;;;;;;;5.50;4.00;;;;;37.24;22.67;101817.19;5065318;28;46669;-70
2021/08/14 09:59:50;;;;;;;;;4.50;3.75;;;;;37.34;21.59;101819.78;5067013;27;45620;-72
2021/08/14 10:02:29;;;;;;;;;4.00;4.00;;;;;37.11;20.40;101815.25;5067826;27;48258;-72
2021/08/14 10:04:56;;;;;;;;;4.25;3.25;;;;;36.85;21.70;101812.91;5067911;27;45511;-70
2021/08/14 10:07:22;;;;;;;;;6.00;5.75;;;;;36.96;22.05;101808.03;5059488;27;45536;-74
2021/08/14 10:09:48;;;;;;;;;4.00;4.00;;;;;37.20;23.26;101805.16;5074997;27;45424;-72
2021/08/14 10:12:16;;;;;;;;;3.00;2.50;;;;;37.39;21.04;101800.38;5074205;27;45686;-74
2021/08/14 10:14:44;;;;;;;;;5.00;4.00;;;;;37.53;20.49;101800.41;5071691;27;45562;-72
2021/08/14 10:17:10;;;;;;;;;4.00;4.00;;;;;37.49;21.21;101804.88;5059776;27;45559;-76
2021/08/14 10:19:36;;;;;;;;;4.00;4.00;;;;;37.65;21.96;101802.66;5071069;27;45625;-72
2021/08/14 10:22:08;;;;;;;;;4.50;4.00;;;;;37.59;22.08;101792.88;5066815;27;45480;-67
2021/08/14 10:24:39;;;;;;;;;4.50;4.50;;;;;37.74;22.64;101798.06;5076993;27;45593;-67
2021/08/14 10:27:11;;;;;;;;;5.50;4.00;;;;;37.99;22.33;101791.19;5066977;27;45431;-73
2021/08/14 10:29:59;;;;;;;;;5.00;3.25;;;;;38.35;22.14;101781.25;5069675;27;45710;-67
2021/08/14 10:32:30;;;;;;;;;6.00;5.50;;;;;38.68;20.71;101785.44;5073435;27;46207;-70
2021/08/14 10:35:14;;;;;;;;;5.25;4.00;;;;;38.98;22.74;101782.22;5080170;27;45565;-70
2021/08/14 10:37:40;;;;;;;;;5.50;4.00;;;;;39.26;21.16;101774.53;5072388;27;45495;-67
2021/08/14 10:40:06;;;;;;;;;4.50;3.25;;;;;39.65;20.92;101772.88;5072369;27;45505;-67
2021/08/14 10:42:48;;;;;;;;;4.25;3.75;;;;;39.82;22.26;101767.41;5070671;27;46380;-73
2021/08/14 10:45:16;;;;;;;;;4.00;3.50;;;;;39.95;20.80;101768.41;5067339;27;45915;-71
2021/08/14 10:47:44;;;;;;;;;3.50;3.00;;;;;40.17;20.31;101761.91;5081740;27;45484;-68
2021/08/14 10:50:32;;;;;;;;;4.50;3.00;;;;;40.44;20.34;101762.72;5070445;27;45525;-69
2021/08/14 10:53:12;;;;;;;;;4.75;3.75;;;;;40.50;19.69;101764.16;5065315;27;45607;-73
2021/08/14 10:55:39;;;;;;;;;5.75;4.75;;;;;40.08;18.08;101755.53;5069436;27;45797;-65
2021/08/14 10:58:24;;;;;;;;;3.50;2.75;;;;;39.41;19.12;101756.72;5064668;27;45621;-66
2021/08/14 11:01:10;;;;;;;;;4.00;3.25;;;;;39.13;20.46;101754.97;5067248;27;45459;-72
2021/08/14 11:03:37;;;;;;;;;0.00;0.00;;;;;39.19;19.98;101760.34;5074060;27;45556;-67
2021/08/14 11:06:25;;;;;;;;;5.50;4.00;;;;;38.93;19.15;101758.31;5076888;27;45600;-70
2021/08/14 11:09:17;;;;;;;;;7.75;3.00;;;;;38.61;20.28;101751.13;5063785;27;45483;-68
2021/08/14 11:12:02;;;;;;;;;4.00;4.00;;;;;38.76;19.68;101747.94;5046932;27;45500;-67
2021/08/14 11:14:36;;;;;;;;;6.75;4.25;;;;;38.58;20.75;101752.56;5062742;27;46332;-73
2021/08/14 11:17:02;;;;;;;;;4.75;4.00;;;;;38.49;20.70;101741.44;5060797;27;45451;-68
2021/08/14 11:19:52;;;;;;;;;4.75;3.75;;;;;38.53;22.25;101744.41;5060731;27;45643;-73
2021/08/14 11:22:42;;;;;;;;;6.00;5.00;;;;;38.98;21.45;101732.50;5063652;27;45459;-68